Hlavní strana
METAR-TAF:

METAR-TAF

Letiště :

Caracas, Venezuela

zeměpisná šířka: 10-36N, zeměpisná délka: 066-59W, výška: 43 m

Aktuální stav počasí

Zpráva byla vytvořena před 59 minutami, v 22:00 UTC
Východojihovýchodní vítr 3 kt
Teplota 27°C
Vlhkost vzduchu 79%
Tlak 1013 hPa
Viditelnost 10 km a více
Oblačno až skoro zataženo ve výšce 1600 ft

METAR: SVMI 162200Z 11003KT 9999 BKN016 27/23 Q1013

Čas: 18:59 (22:59 UTC)

Předpověď počasí

Zpráva byla vytvořena před 6 hodinami a 59 minutami, v 16:00 UTC
Předpověď platná od 16 v 18 UTC do 17 v 18 UTC
Východní vítr 13 kt
Viditelnost 10 km a více
Oblačno až skoro zataženo ve výšce 1600 ft
Změna
od 16 v 18 UTC do 16 v 23 UTC
Východní vítr 10 kt
Oblačno až skoro zataženo ve výšce 1600 ft

TAF: SVMI 161600Z 1618/1718 09013KT 9999 BKN016 TX31/18Z TN24/09Z BECMG 1618/1623 09010KT BKN016

Stav a předpovědi počasí z více než 4 000 letišť (zprávy METAR a TAF).

Červené a žluté tečky na mapě představují dostupné meteorologické stanice.

Když kurzor umístíte na tečku, zobrazí se název stanice.

Pak kliknutím zobrazíte stav a předpověď počasí.

Chcete-li změnit mapu, kliknutím na zelené tlačítko se znaménkem +mapu přiblížíte, kliknutím na zelené tlačítko se znaménkem – mapu oddálíte a kliknutím na zelené šipky přejdete na sousední mapy.


METAR-TAF: